Reese River Valley, Nevada Weather observations

Data are for 10 minute period ending at time listed.
 Day   Time   Solar   Ave.   Ave.  Ave.  Vector  Max.   Baro.   Total    
  of    of     Rad.   Air    Rel.  Wind   Wind   Wind  Press.  Precip.   
Year   Day            Temp.  Hum.  Speed  Dir.   Gust                    
2015   (PST)  Kw/m2    F      %     mph   deg.    mph    mb.     in.     
-------------------------------------------------------------------------
 182    9:30   100.00  99999.0   99999  99999.0   99999   99999.0   99999.0   99999.00 
 182    9:40   100.00  99999.0   99999  99999.0   99999   99999.0   99999.0   99999.00 
 182    9:50   100.00  99999.0   99999  99999.0   99999   99999.0   99999.0   99999.00 
 182   10:00   100.00  99999.0   99999  99999.0   99999   99999.0   99999.0   99999.00 
 182   10:10   100.00  99999.0   99999  99999.0   99999   99999.0   99999.0   99999.00 
 182   10:20   100.00  99999.0   99999  99999.0   99999   99999.0   99999.0   99999.00 
 182   10:30   0.82   87.0    22    5.3   350     9.7   818.3    0.00 
 182   10:40   0.56   87.4    21    2.5   338     5.7   818.3    0.00 
 182   10:50   0.86   88.1    20    2.3    62     3.7   818.2    0.00 
 182   11:00   0.75   88.2    23    3.4    44     6.1   818.1    0.00 
 182   11:10   0.88   88.5    21    3.3   344     7.2   818.1    0.00 
 182   11:20   0.94   89.9    21    4.4   282    11.2   818.0    0.00 
 182   11:30   1.00   89.3    22    7.0   308    14.4   817.9    0.00 
 182   11:40   1.06   89.0    21    7.8   331    16.7   817.9    0.00 
 182   11:50   0.95   88.9    21    6.7   348    14.7   817.9    0.00 
 182   12:00   0.97   89.6    19    2.8   268    11.7   817.8    0.00 
 182   12:10   1.06   90.3    19    4.9   297    10.3   817.8    0.00 
 182   12:20   1.06   90.7    20    5.3   303     8.6   817.7    0.00 
 182   12:30   1.06   90.8    18    5.2   138    12.5   817.7    0.00 
 182   12:40   1.07   91.2    18    3.9   191     9.9   817.5    0.00 
 182   12:50   1.08   91.2    21    7.6    22    16.7   817.5    0.00 
 182   13:00   1.09   90.3    21    6.6    10    14.1   817.4    0.00 
 182   13:10   1.05   90.6    20    9.1    16    15.1   817.3    0.00 
 182   13:20   0.76   89.3    21    8.1    33    14.8   817.2    0.00 
 182   13:30   1.11   90.1    20    9.0    26    18.1   817.1    0.00 
 182   13:40   1.11   90.7    19    5.6    80    11.3   817.0    0.00 
 182   13:50   0.91   91.9    18    8.7   284    14.5   816.9    0.00 
 182   14:00   0.75   92.3    17    8.2   327    19.3   816.7    0.00 
 182   14:10   0.32   89.6    20    7.5   296    14.5   816.7    0.00 
 182   14:20   0.14   86.6    22   10.7   278    16.7   816.6    0.00 
 182   14:30   0.09   85.5    22   11.4   264    16.4   816.4    0.00 
 182   14:40   0.07   84.8    23    9.6   253    20.2   816.4    0.00 
 182   14:50   0.07   83.0    26   13.2   195    20.4   816.5    0.00 
 182   15:00   0.13   82.4    27   11.4   186    21.4   816.7    0.00 
 182   15:10   0.14   82.4    27    9.1   135    16.6   816.7    0.00 
 182   15:20   0.18   81.5    33    9.2   118    14.2   816.8    0.00 
 182   15:30   0.22   79.8    35    9.3    96    14.2   817.1    0.00 
 182   15:40   0.23   78.1    39   14.6    38    23.2   817.6    0.00 
 182   15:50   0.26   76.7    42   11.7    30    16.4   817.8    0.00 
 182   16:00   0.36   77.0    42    8.1    22    13.7   817.5    0.00 
 182   16:10   0.40   77.9    43   12.8    68    21.1   817.5    0.00 
 182   16:20   0.28   78.7    36   12.4    58    16.2   817.6    0.00 
 182   16:30   0.16   78.9    36   10.2    72    16.0   817.6    0.00 
 182   16:40   0.05   78.2    37    8.7    65    13.4   817.7    0.00 
 182   16:50   0.03   78.1    37    9.8    44    13.7   817.8    0.00 
 182   17:00   0.03   76.9    40    8.8    20    13.7   817.8    0.00 
 182   17:10   0.03   77.8    33    9.1   340    12.1   817.7    0.00 
 182   17:20   0.04   76.9    34    6.5   309     8.9   817.5    0.00 
 182   17:30   0.06   77.1    33    6.1   336     9.1   817.6    0.00 
 182   17:40   0.07   77.7    34    3.9     3     6.6   817.6    0.00 
 182   17:50   0.07   76.0    42    5.5   101     9.1   817.7    0.00 
 182   18:00   0.07   77.1    36    4.7   152     6.5   817.8    0.00 
 182   18:10   0.05   78.2    33    3.6   196     5.6   817.8    0.00 
 182   18:20   0.05   76.6    37    3.6   238     4.5   817.8    0.00 
 182   18:30   0.04   74.7    44    4.4   253     5.3   817.8    0.00 
 182   18:40   0.04   73.8    43    1.4   230     5.3   818.1    0.00 
 182   18:50   0.03   76.2    34    2.8   226     5.4   818.2    0.00 
 182   19:00   0.02   75.8    37    4.9    46    10.7   818.5    0.00 
 182   19:10   0.01   75.2    37   10.7    19    16.7   818.6    0.00 
 182   19:20   0.00   74.4    39    6.5    14    10.6   818.7    0.00 
 182   19:30   0.00   73.5    40    2.3     8     5.7   818.6    0.00 
 182   19:40   0.00   72.1    45    3.3   135     4.5   818.6    0.00 
 182   19:50   0.00   72.0    44    3.2   225     4.7   818.6    0.00 
 182   20:00   0.00   70.8    44    3.9   218     5.8   818.6    0.00 
 182   20:10   0.00   70.4    46    3.9   236     5.7   819.0    0.00 
 182   20:20   0.00   69.4    48    4.3   254     6.1   819.4    0.00 
 182   20:30   0.00   71.7    40    4.5   332     7.9   819.7    0.00 
 182   20:40   0.00   72.7    38    2.2   198     4.5   819.8    0.00 
 182   20:50   0.00   71.4    43    4.6   139     9.7   819.7    0.00 
 182   21:00   0.00   71.9    39    5.3   179     9.5   819.7    0.00 
 182   21:10   0.00   71.8    38    4.7   168     7.0   819.7    0.00 
 182   21:20   0.00   71.2    40    5.7   155     7.7   819.5    0.00 
 182   21:30   0.00   72.3    36    7.5   185    10.2   819.3    0.00 
 182   21:40   0.00   72.5    35    6.0   171     8.1   819.1    0.00 
 182   21:50   0.00   71.5    38    5.3   202     7.2   818.9    0.00 
 182   22:00   0.00   69.0    46    3.9   253     5.3   819.1    0.00 
 182   22:10   0.00   67.5    50    6.4   299     8.6   819.1    0.00 
 182   22:20   0.00   68.0    49    3.3    37     6.2   819.2    0.00 
 182   22:30   0.00   69.3    45    3.7     3     6.9   819.2    0.00 
 182   22:40   0.00   69.0    45    3.8    45     7.6   819.1    0.00 
 182   22:50   0.00   68.9    48    2.2   120     4.7   819.2    0.00 
 182   23:00   0.00   69.1    46    7.3   149    12.5   819.4    0.00 
 182   23:10   0.00   70.3    43    7.1   145     9.7   819.6    0.00 
 182   23:20   0.00   70.6    40    6.8   164    10.7   819.6    0.00 
 182   23:30   0.00   70.2    43    3.9   125     5.6   819.5    0.00 
 182   23:40   0.00   68.5    46    5.6   131     8.5   819.3    0.00 
 182   23:50   0.00   67.8    45    4.5   173     5.8   819.2    0.00 
 183    0:00   0.00   68.2    43    5.3   162     7.2   819.0    0.00 
 183    0:10   0.00   68.6    42    4.9   168     6.4   819.0    0.00 
 183    0:20   0.00   68.1    43    4.3   183     6.2   818.9    0.00 
 183    0:30   0.00   67.0    46    4.9   203     6.1   819.0    0.00 
 183    0:40   0.00   66.5    46    4.6   181     6.8   819.0    0.00 
 183    0:50   0.00   67.4    45    4.2   172     5.8   818.9    0.00 
 183    1:00   0.00   67.1    48    4.9   147     8.2   818.7    0.00 
 183    1:10   0.00   68.4    45    5.2   140     8.7   818.6    0.00 
 183    1:20   0.00   69.5    45    4.4    16     9.3   818.6    0.00 
 183    1:30   0.00   67.6    47    3.0   270     5.5   818.6    0.00 
 183    1:40   0.00   65.9    52    1.3   191     3.5   818.5    0.00 
 183    1:50   0.00   65.4    53    3.1   176     6.8   818.5    0.00 
 183    2:00   0.00   63.8    54    3.5   200     7.4   818.6    0.00 
 183    2:10   0.00   63.6    55    3.5   289     6.4   818.6    0.00 
 183    2:20   0.00   62.5    58    4.7   228     6.9   818.5    0.00 
 183    2:30   0.00   62.1    61    5.1   241     6.3   818.4    0.00 
 183    2:40   0.00   60.9    64    5.8   230     7.5   818.5    0.00 
 183    2:50   0.00   60.5    65    6.6   230     7.8   818.7    0.00 
 183    3:00   0.00   60.9    64    6.7   225     8.3   818.8    0.00 
 183    3:10   0.00   62.5    61    7.6   242    12.2   818.8    0.00 
 183    3:20   0.00   61.5    64    7.8   245    10.9   818.8    0.00 
 183    3:30   0.00   61.6    63    8.3   240    11.5   818.8    0.00 
 183    3:40   0.00   62.0    61    8.3   212    12.3   818.7    0.00 
 183    3:50   0.00   62.2    60    6.0   212     8.6   818.8    0.00 
 183    4:00   0.00   62.4    59    7.0   196     9.1   818.8    0.00 
 183    4:10   0.00   63.9    55    9.1   226    13.0   818.8    0.00 
 183    4:20   0.00   62.7    59    9.2   238    11.6   818.8    0.00 
 183    4:30   0.00   62.9    58    6.8   219     9.3   818.9    0.00 
 183    4:40   0.01   63.5    56    6.2   210     8.8   819.1    0.00 
 183    4:50   0.01   62.8    59    5.4   241    10.0   819.1    0.00 
 183    5:00   0.02   63.6    57    7.0   238    10.0   819.1    0.00 
 183    5:10   0.03   63.6    57    5.9   221     8.3   819.2    0.00 
 183    5:20   0.05   63.0    60    6.0   227     8.0   819.2    0.00 
 183    5:30   0.07   63.2    60    4.9   227     7.1   819.3    0.00 
 183    5:40   0.09   63.8    59    5.1   231     7.2   819.2    0.00 
 183    5:50   0.14   64.9    57    5.6   231     7.2   819.3    0.00 
 183    6:00   0.20   67.1    52    7.3   228     9.9   819.3    0.00 
 183    6:10   0.26   69.5    47    8.1   230    11.2   819.3    0.00 
 183    6:20   0.30   71.7    43    8.2   230    10.7   819.4    0.00 
 183    6:30   0.34   73.1    40    7.3   227    10.0   819.5    0.00 
 183    6:40   0.37   74.9    38    6.1   236     7.8   819.6    0.00 
 183    6:50   0.31   75.5    37    5.1   232     7.5   819.6    0.00 
 183    7:00   0.33   76.0    36    4.4   224     6.8   819.6    0.00 
 183    7:10   0.30   76.4    35    3.6   223     5.7   819.6    0.00 
 183    7:20   0.34   76.8    35    3.8   232     6.4   819.6    0.00 
 183    7:30   0.29   76.6    37    4.7   245     7.1   819.5    0.00 
 183    7:40   0.24   76.1    39    4.4   245     6.9   819.5    0.00 
 183    7:50   0.26   76.0    38    5.4   237     8.2   819.4    0.00 
 183    8:00   0.29   77.0    35    4.1   219     6.3   819.5    0.00 
 183    8:10   0.67   79.4    30    3.0   198     6.3   819.5    0.00 
 183    8:20   0.54   81.7    27    3.9   172     8.8   819.4    0.00 
 183    8:30   0.52   80.6    28    4.8   150     8.1   819.3    0.00 
 183    8:40   0.54   81.2    27    5.4   141     8.8   819.3    0.00 
 183    8:50   0.53   80.5    28    5.1   137     8.3   819.2    0.00 
 183    9:00   0.80   81.6    27    4.4   128     8.8   819.2    0.00 
 183    9:10   0.85   83.1    26    6.4   209    15.6   819.1    0.00 
 183    9:20   0.90   84.0    25    3.3   233     6.4   819.0    0.00 

Return to Reese River Valley graphs page.


Western Regional Climate Center,wrcc@dri.edu